createdAt,value
2023-04-29T00:00:48.359Z,100754.03
2023-04-29T00:05:56.712Z,100750.59
2023-04-29T00:11:04.990Z,100752.31
2023-04-29T00:16:12.203Z,100749.69
2023-04-29T00:21:18.952Z,100750.59
2023-04-29T00:26:26.989Z,100754.00
2023-04-29T00:31:33.453Z,100753.13
2023-04-29T00:36:40.274Z,100749.69
2023-04-29T00:41:49.025Z,100740.25
2023-04-29T00:46:55.455Z,100739.41
2023-04-29T00:52:02.395Z,100739.41
2023-04-29T00:57:10.482Z,100735.09
2023-04-29T01:02:18.806Z,100730.81
2023-04-29T01:07:36.629Z,100733.38
2023-04-29T01:12:55.919Z,100736.81
2023-04-29T01:18:06.714Z,100736.84
2023-04-29T01:23:13.780Z,100741.16
2023-04-29T01:28:42.491Z,100741.09
2023-04-29T01:34:00.969Z,100737.66
2023-04-29T01:39:16.567Z,100738.56
2023-04-29T01:44:32.838Z,100732.50
2023-04-29T01:49:40.094Z,100731.63
2023-04-29T01:54:47.497Z,100733.31
2023-04-29T01:59:55.763Z,100723.03
2023-04-29T02:05:20.419Z,100733.38
2023-04-29T02:10:35.636Z,100727.38
2023-04-29T02:15:58.220Z,100725.66
2023-04-29T02:21:05.948Z,100723.06
2023-04-29T02:26:15.698Z,100718.75
2023-04-29T02:31:23.578Z,100712.72
2023-04-29T02:36:30.430Z,100716.16
2023-04-29T02:41:36.664Z,100709.25
2023-04-29T02:46:46.079Z,100716.16
2023-04-29T02:51:52.299Z,100711.00
2023-04-29T02:56:59.101Z,100707.56
2023-04-29T03:02:06.974Z,100711.00
2023-04-29T03:07:13.756Z,100709.28
2023-04-29T03:12:20.565Z,100704.94
2023-04-29T03:17:28.555Z,100700.66
2023-04-29T03:22:37.925Z,100700.63
2023-04-29T03:27:44.774Z,100704.94
2023-04-29T03:32:53.149Z,100701.50
2023-04-29T03:37:59.672Z,100694.59
2023-04-29T03:43:11.383Z,100703.19
2023-04-29T03:48:20.434Z,100692.03
2023-04-29T03:53:28.387Z,100692.03
2023-04-29T03:58:35.488Z,100690.34
2023-04-29T04:03:44.525Z,100694.63
2023-04-29T04:08:51.162Z,100689.47
2023-04-29T04:14:02.593Z,100687.72
2023-04-29T04:19:11.619Z,100698.06
2023-04-29T04:24:22.508Z,100698.06
2023-04-29T04:29:30.514Z,100704.09
2023-04-29T04:34:41.600Z,100702.31
2023-04-29T04:39:49.922Z,100700.59
2023-04-29T04:44:56.546Z,100694.50
2023-04-29T04:50:23.485Z,100691.00
2023-04-29T04:55:33.871Z,100685.81
2023-04-29T05:00:45.317Z,100690.91
2023-04-29T05:05:57.412Z,100681.28
2023-04-29T05:11:04.511Z,100680.25
2023-04-29T05:16:11.132Z,100686.09
2023-04-29T05:21:24.198Z,100683.34
2023-04-29T05:26:30.588Z,100675.38
2023-04-29T05:31:40.753Z,100679.53
2023-04-29T05:36:49.353Z,100675.09
2023-04-29T05:41:55.721Z,100667.97
2023-04-29T05:47:14.924Z,100673.91
2023-04-29T05:52:23.502Z,100669.34
2023-04-29T05:57:30.836Z,100670.78
2023-04-29T06:02:41.587Z,100673.88
2023-04-29T06:07:57.173Z,100667.63
2023-04-29T06:13:12.015Z,100670.00
2023-04-29T06:18:18.743Z,100671.56
2023-04-29T06:23:26.941Z,100666.09
2023-04-29T06:28:33.887Z,100661.59
2023-04-29T06:33:40.444Z,100661.59
2023-04-29T06:38:48.522Z,100668.41
2023-04-29T06:44:26.940Z,100668.16
2023-04-29T06:49:44.106Z,100659.13
2023-04-29T06:54:52.083Z,100655.22
2023-04-29T06:59:58.540Z,100658.13
2023-04-29T07:05:04.959Z,100647.84
2023-04-29T07:10:13.349Z,100640.44
2023-04-29T07:15:21.759Z,100642.78
2023-04-29T07:20:29.759Z,100638.13
2023-04-29T07:25:38.154Z,100635.88
2023-04-29T07:30:46.640Z,100640.84
2023-04-29T07:35:53.519Z,100635.34
2023-04-29T07:41:02.103Z,100633.50
2023-04-29T07:46:09.125Z,100632.06
2023-04-29T07:51:16.426Z,100622.69
2023-04-29T07:56:25.117Z,100615.22
2023-04-29T08:01:31.842Z,100613.00
2023-04-29T08:06:38.619Z,100612.75
2023-04-29T08:11:47.038Z,100610.38
2023-04-29T08:16:53.691Z,100607.34
2023-04-29T08:22:01.409Z,100606.53
2023-04-29T08:27:09.421Z,100613.06
2023-04-29T08:32:16.348Z,100600.31
2023-04-29T08:37:22.796Z,100602.56
2023-04-29T08:42:37.286Z,100603.41
2023-04-29T08:47:44.305Z,100602.53
2023-04-29T08:52:52.283Z,100598.81
2023-04-29T08:58:00.427Z,100585.44
2023-04-29T09:03:19.703Z,100581.72
2023-04-29T09:08:28.391Z,100582.22
2023-04-29T09:13:36.242Z,100583.25
2023-04-29T09:18:48.354Z,100581.56
2023-04-29T09:23:56.112Z,100587.38
2023-04-29T09:29:14.395Z,100591.03
2023-04-29T09:34:32.154Z,100597.06
2023-04-29T09:39:41.650Z,100573.81
2023-04-29T09:44:49.690Z,100568.72
2023-04-29T09:50:12.908Z,100561.19
2023-04-29T09:55:19.509Z,100561.41
2023-04-29T10:00:29.872Z,100556.50
2023-04-29T10:05:36.363Z,100553.16
2023-04-29T10:10:42.912Z,100552.97
2023-04-29T10:16:01.777Z,100547.41
2023-04-29T10:21:10.785Z,100541.38
2023-04-29T10:26:18.435Z,100534.59
2023-04-29T10:31:30.541Z,100527.59
2023-04-29T10:36:39.090Z,100523.19
2023-04-29T10:41:48.711Z,100529.94
2023-04-29T10:47:23.568Z,100519.59
2023-04-29T10:52:30.585Z,100513.84
2023-04-29T10:57:38.416Z,100512.00
2023-04-29T11:02:46.311Z,100516.56
2023-04-29T11:08:13.331Z,100523.41
2023-04-29T11:13:27.875Z,100501.66
2023-04-29T11:18:36.588Z,100502.34
2023-04-29T11:23:45.503Z,100493.50
2023-04-29T11:28:53.521Z,100507.63
2023-04-29T11:34:02.303Z,100493.31
2023-04-29T11:39:09.821Z,100491.00
2023-04-29T11:44:16.117Z,100482.34
2023-04-29T11:49:29.250Z,100471.38
2023-04-29T11:54:35.936Z,100468.47
2023-04-29T11:59:45.056Z,100465.66
2023-04-29T12:04:53.768Z,100462.03
2023-04-29T12:10:01.065Z,100466.66
2023-04-29T12:15:11.724Z,100470.06
2023-04-29T12:20:19.854Z,100467.44
2023-04-29T12:25:30.372Z,100454.44
2023-04-29T12:30:37.729Z,100457.81
2023-04-29T12:35:45.934Z,100458.28
2023-04-29T12:40:52.577Z,100450.00
2023-04-29T12:46:04.944Z,100450.94
2023-04-29T12:51:15.150Z,100448.22
2023-04-29T12:56:22.043Z,100443.31
2023-04-29T13:01:29.260Z,100449.19
2023-04-29T13:06:45.236Z,100439.25
2023-04-29T13:11:52.322Z,100447.28
2023-04-29T13:16:58.924Z,100430.00
2023-04-29T13:22:07.066Z,100430.75
2023-04-29T13:27:13.793Z,100427.38
2023-04-29T13:32:24.755Z,100421.06
2023-04-29T13:37:33.106Z,100421.13
2023-04-29T13:42:47.180Z,100426.13
2023-04-29T13:48:07.662Z,100422.75
2023-04-29T13:54:03.057Z,100437.09
2023-04-29T13:59:36.141Z,100433.47
2023-04-29T14:04:19.536Z,100430.59
2023-04-29T14:09:27.972Z,100431.06
2023-04-29T14:14:34.947Z,100420.69
2023-04-29T14:19:42.014Z,100420.22
2023-04-29T14:24:50.107Z,100422.84
2023-04-29T14:29:57.821Z,100417.56
2023-04-29T14:35:07.377Z,100413.31
2023-04-29T14:40:18.429Z,100417.75
2023-04-29T14:45:26.382Z,100413.41
2023-04-29T14:50:32.936Z,100418.56
2023-04-29T14:55:41.038Z,100410.31
2023-04-29T15:00:48.160Z,100405.31
2023-04-29T15:05:55.031Z,100404.47
2023-04-29T15:11:03.169Z,100407.66
2023-04-29T15:16:10.478Z,100411.84
2023-04-29T15:21:17.380Z,100400.69
2023-04-29T15:26:25.793Z,59898.34
2023-04-29T15:31:32.566Z,59898.34
2023-04-29T15:36:39.594Z,59898.34
2023-04-29T15:41:48.589Z,59898.34
2023-04-29T15:46:55.371Z,59898.34
2023-04-29T15:52:02.100Z,59898.34
2023-04-29T15:57:10.468Z,59898.34
2023-04-29T16:02:17.610Z,59898.34
2023-04-29T16:07:27.176Z,59898.34
2023-04-29T16:12:35.656Z,59898.34
2023-04-29T16:17:42.653Z,59898.34
2023-04-29T16:22:49.578Z,59898.34
2023-04-29T16:27:58.659Z,59898.34
2023-04-29T16:33:11.435Z,59898.34
2023-04-29T16:38:19.937Z,59898.34
2023-04-29T17:29:41.888Z,100451.94
2023-04-29T17:34:49.922Z,100447.03
2023-04-29T17:39:58.125Z,100448.19
2023-04-29T17:45:07.785Z,100455.78
2023-04-29T17:50:14.981Z,100445.75
2023-04-29T17:55:23.452Z,100449.72
2023-04-29T18:00:36.046Z,100449.50
2023-04-29T18:05:47.424Z,100444.56
2023-04-29T18:10:55.426Z,100446.69
2023-04-29T18:16:06.078Z,100454.91
2023-04-29T18:21:13.840Z,100450.16
2023-04-29T18:26:21.749Z,100460.16
2023-04-29T18:31:31.145Z,100465.97
2023-04-29T18:36:38.050Z,100476.84
2023-04-29T18:41:45.513Z,100483.03
2023-04-29T18:46:55.856Z,100484.31
2023-04-29T18:52:12.932Z,100490.50
2023-04-29T18:57:29.549Z,100487.22
2023-04-29T19:02:39.560Z,100488.19
2023-04-29T19:07:48.476Z,100490.06
2023-04-29T19:13:02.208Z,100483.25
2023-04-29T19:19:09.327Z,100494.81
2023-04-29T19:25:00.332Z,100486.34
2023-04-29T19:30:36.507Z,100490.97
2023-04-29T19:35:50.157Z,100492.97
2023-04-29T19:40:59.122Z,100495.03
2023-04-29T19:46:09.556Z,100497.22
2023-04-29T19:51:20.953Z,100500.75
2023-04-29T19:56:29.924Z,100504.41
2023-04-29T20:01:39.438Z,100508.94
2023-04-29T20:06:51.520Z,100505.69
2023-04-29T20:11:59.823Z,100507.53
2023-04-29T20:17:10.819Z,100505.13
2023-04-29T20:22:20.570Z,100502.72
2023-04-29T20:27:28.167Z,100503.88
2023-04-29T20:32:35.233Z,100498.81
2023-04-29T20:37:44.500Z,100497.25
2023-04-29T20:42:51.511Z,100487.78
2023-04-29T20:47:58.676Z,100487.78
2023-04-29T20:53:08.516Z,100494.97
2023-04-29T20:58:16.908Z,100494.16
2023-04-29T21:03:23.605Z,100496.00
2023-04-29T21:08:32.035Z,100492.50
2023-04-29T21:13:38.916Z,100498.66
2023-04-29T21:18:45.811Z,100508.34
2023-04-29T21:23:53.756Z,100503.16
2023-04-29T21:29:00.319Z,100493.63
2023-04-29T21:34:07.574Z,100498.13
2023-04-29T21:39:16.097Z,100501.66
2023-04-29T21:44:23.377Z,100506.16
2023-04-29T21:49:30.839Z,100507.00
2023-04-29T21:54:39.413Z,100504.44
2023-04-29T21:59:46.661Z,100518.56
2023-04-29T22:04:54.572Z,100517.81
2023-04-29T22:10:04.113Z,100520.41
2023-04-29T22:15:24.662Z,100510.91
2023-04-29T22:20:35.003Z,100523.13
2023-04-29T22:25:43.141Z,100525.84
2023-04-29T22:30:49.669Z,100522.50
2023-04-29T22:35:56.328Z,100522.50
2023-04-29T22:41:04.737Z,100520.69
2023-04-29T22:46:12.001Z,100526.81
2023-04-29T22:51:20.335Z,100527.81
2023-04-29T22:56:29.249Z,100521.81
2023-04-29T23:01:35.752Z,100520.06
2023-04-29T23:06:42.442Z,100523.66
2023-04-29T23:11:50.502Z,100528.91
2023-04-29T23:16:57.031Z,100526.38
2023-04-29T23:22:03.676Z,100523.78
2023-04-29T23:27:11.784Z,100523.97
2023-04-29T23:32:19.818Z,100527.50
2023-04-29T23:37:27.539Z,100526.72
2023-04-29T23:42:35.951Z,100530.28
2023-04-29T23:47:42.452Z,100531.31
2023-04-29T23:52:48.729Z,100535.72
2023-04-29T23:58:06.990Z,100534.16
